createdAt,value
2022-09-30T00:01:31.650Z,98799.41
2022-09-30T00:11:05.424Z,98815.42
2022-09-30T00:20:40.600Z,98816.94
2022-09-30T00:30:12.385Z,98821.10
2022-09-30T00:39:46.516Z,98832.69
2022-09-30T00:49:20.198Z,98835.48
2022-09-30T00:58:53.917Z,98835.23
2022-09-30T01:08:29.247Z,98832.58
2022-09-30T01:18:01.306Z,98831.89
2022-09-30T01:27:35.327Z,98842.17
2022-09-30T01:37:09.153Z,98855.77
2022-09-30T01:46:42.834Z,98845.47
2022-09-30T01:56:16.768Z,98848.14
2022-09-30T02:05:50.872Z,98847.75
2022-09-30T02:15:26.243Z,98858.55
2022-09-30T02:24:59.677Z,98875.44
2022-09-30T02:34:33.126Z,98866.86
2022-09-30T02:44:04.839Z,98877.51
2022-09-30T02:53:39.801Z,98887.84
2022-09-30T03:03:13.601Z,98888.56
2022-09-30T03:12:47.301Z,98894.30
2022-09-30T03:22:19.226Z,98906.23
2022-09-30T03:31:54.618Z,98912.14
2022-09-30T03:41:28.074Z,98913.97
2022-09-30T03:50:59.632Z,98915.16
2022-09-30T04:00:33.043Z,98932.14
2022-09-30T04:10:07.514Z,98933.02
2022-09-30T04:19:40.294Z,98944.34
2022-09-30T04:29:15.494Z,98947.44
2022-09-30T04:38:47.739Z,98953.98
2022-09-30T04:48:21.590Z,98963.78
2022-09-30T04:57:55.225Z,98977.05
2022-09-30T05:07:28.883Z,98983.55
2022-09-30T05:17:04.215Z,98993.38
2022-09-30T05:26:36.459Z,99000.11
2022-09-30T05:36:09.928Z,99024.64
2022-09-30T05:45:45.135Z,99035.53
2022-09-30T05:55:18.425Z,99066.20
2022-09-30T06:04:50.043Z,99065.91
2022-09-30T06:14:23.961Z,99065.91
2022-09-30T06:23:59.510Z,99080.33
2022-09-30T06:33:31.601Z,99095.18
2022-09-30T06:43:06.853Z,99093.78
2022-09-30T06:52:40.857Z,99092.05
2022-09-30T07:02:12.761Z,99091.85
2022-09-30T07:11:47.149Z,99096.30
2022-09-30T07:21:22.249Z,99116.77
2022-09-30T07:31:08.062Z,99124.06
2022-09-30T07:40:29.311Z,99124.39
2022-09-30T07:50:03.571Z,99142.73
2022-09-30T07:59:37.947Z,99166.40
2022-09-30T08:09:12.730Z,99172.55
2022-09-30T08:18:48.752Z,99170.19
2022-09-30T08:28:22.672Z,99174.30
2022-09-30T08:37:56.382Z,99172.66
2022-09-30T08:47:31.286Z,99174.91
2022-09-30T08:57:06.020Z,99177.91
2022-09-30T08:58:08.580Z,99176.45
2022-09-30T08:59:11.003Z,99176.22
2022-09-30T09:08:44.873Z,99173.37
2022-09-30T09:18:23.436Z,99186.09
2022-09-30T09:19:23.423Z,99189.65
2022-09-30T09:20:25.687Z,99185.86
2022-09-30T09:21:28.135Z,99190.58
2022-09-30T09:22:33.150Z,99191.34
2022-09-30T09:23:35.515Z,99189.13
2022-09-30T09:24:38.892Z,99189.75
2022-09-30T09:25:41.291Z,99190.48
2022-09-30T09:26:43.781Z,99186.85
2022-09-30T09:27:46.251Z,99188.75
2022-09-30T09:28:51.670Z,99188.80
2022-09-30T09:29:52.605Z,99187.44
2022-09-30T09:30:55.024Z,99191.66
2022-09-30T09:31:57.560Z,99188.00
2022-09-30T09:32:59.895Z,99191.78
2022-09-30T09:34:04.031Z,99189.94
2022-09-30T09:35:06.321Z,99190.80
2022-09-30T09:36:10.364Z,99188.56
2022-09-30T09:37:12.632Z,99192.13
2022-09-30T09:38:15.097Z,99191.84
2022-09-30T09:39:17.610Z,99197.36
2022-09-30T09:40:21.010Z,99192.78
2022-09-30T09:41:23.370Z,99192.41
2022-09-30T09:42:25.771Z,99196.61
2022-09-30T09:43:29.432Z,99200.50
2022-09-30T09:44:30.643Z,99201.37
2022-09-30T09:45:34.783Z,99200.56
2022-09-30T09:46:37.043Z,99204.43
2022-09-30T09:47:39.429Z,99203.28
2022-09-30T09:48:41.901Z,99203.67
2022-09-30T09:49:44.401Z,99203.59
2022-09-30T09:50:48.446Z,99204.64
2022-09-30T09:51:51.615Z,99206.48
2022-09-30T09:52:55.619Z,99207.00
2022-09-30T09:53:57.971Z,99209.45
2022-09-30T09:55:00.457Z,99202.22
2022-09-30T09:56:02.950Z,99209.16
2022-09-30T09:57:05.385Z,99206.39
2022-09-30T09:58:07.826Z,99208.30
2022-09-30T09:59:10.340Z,99204.86
2022-09-30T10:00:12.743Z,99205.96
2022-09-30T10:01:16.927Z,99202.98
2022-09-30T10:02:19.339Z,99199.41
2022-09-30T10:03:21.769Z,99200.95
2022-09-30T10:04:25.787Z,99195.52
2022-09-30T10:05:28.100Z,99197.72
2022-09-30T10:06:30.577Z,99195.05
2022-09-30T10:07:33.050Z,99192.31
2022-09-30T10:08:37.055Z,99192.53
2022-09-30T10:09:39.405Z,99191.63
2022-09-30T10:10:41.849Z,99192.23
2022-09-30T10:11:44.427Z,99194.74
2022-09-30T10:12:46.774Z,99196.73
2022-09-30T10:13:50.765Z,99192.44
2022-09-30T10:14:54.679Z,99197.01
2022-09-30T10:15:57.088Z,99192.64
2022-09-30T10:16:59.470Z,99196.95
2022-09-30T10:18:03.563Z,99195.52
2022-09-30T10:19:09.403Z,99196.33
2022-09-30T10:20:08.343Z,99196.63
2022-09-30T10:21:12.375Z,99193.27
2022-09-30T10:22:16.472Z,99192.66
2022-09-30T10:23:18.779Z,99199.31
2022-09-30T10:24:23.066Z,99195.03
2022-09-30T10:25:25.206Z,99189.57
2022-09-30T10:27:30.084Z,99191.11
2022-09-30T10:28:32.612Z,99191.75
2022-09-30T10:29:36.512Z,99194.16
2022-09-30T10:30:40.451Z,99193.20
2022-09-30T10:31:44.423Z,99195.63
2022-09-30T10:32:46.890Z,99193.58
2022-09-30T10:33:49.536Z,99193.21
2022-09-30T10:34:51.848Z,99188.84
2022-09-30T10:35:54.268Z,99186.28
2022-09-30T10:36:56.773Z,99187.65
2022-09-30T10:37:59.256Z,99182.97
2022-09-30T10:39:05.597Z,99182.13
2022-09-30T10:40:07.315Z,99177.98
2022-09-30T10:41:09.771Z,99181.47
2022-09-30T10:42:12.164Z,99181.82
2022-09-30T10:43:16.263Z,99181.64
2022-09-30T10:44:24.219Z,99181.43
2022-09-30T10:53:53.310Z,99182.66
2022-09-30T10:54:57.429Z,99178.23
2022-09-30T10:56:01.406Z,99180.61
2022-09-30T10:57:05.365Z,99178.70
2022-09-30T10:58:07.763Z,99179.59
2022-09-30T10:59:10.224Z,99181.02
2022-09-30T11:00:14.298Z,99178.02
2022-09-30T11:01:16.667Z,99179.83
2022-09-30T11:02:19.085Z,99180.39
2022-09-30T11:03:21.592Z,99177.36
2022-09-30T11:04:24.018Z,99173.83
2022-09-30T11:05:26.504Z,99171.33
2022-09-30T11:06:29.423Z,99173.14
2022-09-30T11:07:31.392Z,99166.69
2022-09-30T11:08:33.855Z,99170.36
2022-09-30T11:09:36.294Z,99171.70
2022-09-30T11:10:38.695Z,99174.48
2022-09-30T11:11:41.178Z,99171.26
2022-09-30T11:12:43.604Z,99172.83
2022-09-30T11:13:46.104Z,99174.46
2022-09-30T11:14:48.487Z,99174.22
2022-09-30T11:15:51.055Z,99169.38
2022-09-30T11:16:55.077Z,99173.31
2022-09-30T11:17:57.350Z,99173.34
2022-09-30T11:18:59.812Z,99174.28
2022-09-30T11:20:02.283Z,99174.72
2022-09-30T11:21:04.818Z,99175.11
2022-09-30T11:22:07.284Z,99174.97
2022-09-30T11:23:11.360Z,99171.59
2022-09-30T11:24:13.654Z,99177.38
2022-09-30T11:25:16.152Z,99173.55
2022-09-30T11:26:18.603Z,99176.22
2022-09-30T11:27:21.092Z,99177.53
2022-09-30T11:28:23.594Z,99178.84
2022-09-30T11:29:25.982Z,99175.44
2022-09-30T11:30:28.431Z,99174.72
2022-09-30T11:31:30.895Z,99174.14
2022-09-30T11:32:34.938Z,99176.75
2022-09-30T11:33:39.061Z,99177.39
2022-09-30T11:34:41.318Z,99179.51
2022-09-30T11:35:43.798Z,99178.64
2022-09-30T11:36:46.223Z,99172.25
2022-09-30T11:37:50.275Z,99172.05
2022-09-30T11:38:52.629Z,99172.77
2022-09-30T11:39:56.695Z,99171.18
2022-09-30T11:41:00.638Z,99171.78
2022-09-30T11:42:02.980Z,99172.65
2022-09-30T11:43:08.190Z,99171.97
2022-09-30T11:44:10.466Z,99173.39
2022-09-30T11:45:12.796Z,99171.59
2022-09-30T11:46:15.339Z,99177.33
2022-09-30T11:47:18.740Z,99177.23
2022-09-30T11:48:21.124Z,99178.83
2022-09-30T11:49:23.617Z,99180.01
2022-09-30T11:50:26.088Z,99182.97
2022-09-30T11:51:28.573Z,99181.28
2022-09-30T11:52:31.099Z,99183.02
2022-09-30T11:53:33.491Z,99185.20
2022-09-30T11:54:37.600Z,99182.48
2022-09-30T11:55:39.934Z,99184.15
2022-09-30T11:56:42.348Z,99179.82
2022-09-30T11:57:44.798Z,99179.84
2022-09-30T11:58:47.245Z,99177.34
2022-09-30T11:59:50.710Z,99181.63
2022-09-30T12:00:54.693Z,99183.28
2022-09-30T12:01:57.207Z,99176.36
2022-09-30T12:03:01.326Z,99177.06
2022-09-30T12:04:05.157Z,99176.45
2022-09-30T12:05:07.658Z,99178.94
2022-09-30T12:06:10.293Z,99179.31
2022-09-30T12:07:12.755Z,99178.05
2022-09-30T12:08:15.251Z,99177.81
2022-09-30T12:09:17.688Z,99174.31
2022-09-30T12:10:20.270Z,99175.68
2022-09-30T12:11:22.693Z,99174.57
2022-09-30T12:12:25.171Z,99178.00
2022-09-30T12:13:27.655Z,99179.08
2022-09-30T12:14:30.107Z,99174.03
2022-09-30T12:15:32.567Z,99180.19
2022-09-30T12:16:35.085Z,99176.93
2022-09-30T12:17:39.159Z,99177.46
2022-09-30T12:18:41.504Z,99178.58
2022-09-30T12:19:44.026Z,99175.81
2022-09-30T12:20:46.543Z,99172.81
2022-09-30T12:21:50.643Z,99178.88
2022-09-30T12:22:53.015Z,99176.39
2022-09-30T12:23:55.600Z,99172.36
2022-09-30T12:24:58.413Z,99175.84
2022-09-30T12:26:00.775Z,99175.60
2022-09-30T12:27:04.971Z,99172.09
2022-09-30T12:28:07.376Z,99174.97
2022-09-30T12:29:11.377Z,99177.27
2022-09-30T12:30:13.642Z,99178.47
2022-09-30T12:31:18.807Z,99186.59
2022-09-30T12:32:21.002Z,99181.45
2022-09-30T12:33:23.717Z,99188.70
2022-09-30T12:34:26.132Z,99187.35
2022-09-30T12:35:28.600Z,99191.36
2022-09-30T12:36:31.441Z,99196.73
2022-09-30T12:37:33.474Z,99186.58
2022-09-30T12:38:37.601Z,99188.36
2022-09-30T12:39:40.505Z,99190.47
2022-09-30T12:40:46.775Z,99192.47
2022-09-30T12:41:48.430Z,99193.48
2022-09-30T12:42:50.689Z,99190.00
2022-09-30T12:43:53.154Z,99188.10
2022-09-30T12:44:57.234Z,99189.48
2022-09-30T12:45:59.661Z,99188.25
2022-09-30T12:47:02.090Z,99181.02
2022-09-30T12:48:05.530Z,99187.59
2022-09-30T12:49:07.901Z,99185.92
2022-09-30T12:50:10.484Z,99184.34
2022-09-30T12:51:12.959Z,99187.20
2022-09-30T12:52:15.517Z,99185.79
2022-09-30T12:53:18.020Z,99187.69
2022-09-30T12:54:22.079Z,99182.95
2022-09-30T12:55:24.459Z,99185.22
2022-09-30T12:56:28.929Z,99181.89
2022-09-30T12:57:30.875Z,99182.86
2022-09-30T12:58:34.825Z,99181.20
2022-09-30T12:59:37.177Z,99183.47
2022-09-30T13:00:39.602Z,99179.67
2022-09-30T13:01:42.165Z,99180.69
2022-09-30T13:02:44.631Z,99179.67
2022-09-30T13:03:47.104Z,99178.67
2022-09-30T13:04:49.588Z,99181.69
2022-09-30T13:05:53.744Z,99178.88
2022-09-30T13:06:57.724Z,99176.52
2022-09-30T13:08:00.076Z,99172.58
2022-09-30T13:09:02.483Z,99170.47
2022-09-30T13:10:05.985Z,99172.20
2022-09-30T13:11:09.937Z,99171.32
2022-09-30T13:12:13.896Z,99175.84
2022-09-30T13:13:16.222Z,99174.80
2022-09-30T13:14:21.232Z,99179.05
2022-09-30T13:15:22.759Z,99177.36
2022-09-30T13:16:29.751Z,99175.25
2022-09-30T13:17:30.656Z,99181.88
2022-09-30T13:18:34.535Z,99180.27
2022-09-30T13:19:38.518Z,99180.78
2022-09-30T13:20:42.369Z,99180.69
2022-09-30T13:21:44.710Z,99178.87
2022-09-30T13:22:48.715Z,99183.34
2022-09-30T13:23:51.167Z,99181.95
2022-09-30T13:24:55.229Z,99183.36
2022-09-30T13:25:59.156Z,99181.97
2022-09-30T13:27:01.532Z,99183.75
2022-09-30T13:28:04.072Z,99188.77
2022-09-30T13:29:08.191Z,99185.44
2022-09-30T13:30:12.039Z,99186.86
2022-09-30T13:31:14.431Z,99180.80
2022-09-30T13:32:18.479Z,99182.59
2022-09-30T13:33:20.924Z,99179.04
2022-09-30T13:34:23.308Z,99183.70
2022-09-30T13:35:27.385Z,99185.04
2022-09-30T13:36:33.350Z,99183.94
2022-09-30T13:37:34.934Z,99185.69
2022-09-30T13:38:37.413Z,99182.12
2022-09-30T13:39:41.478Z,99180.23
2022-09-30T13:41:01.066Z,99176.70
2022-09-30T13:41:48.027Z,99177.42
2022-09-30T13:42:50.369Z,99177.51
2022-09-30T13:43:54.459Z,99176.48
2022-09-30T13:44:58.488Z,99174.34
2022-09-30T13:46:00.867Z,99173.98
2022-09-30T13:47:03.324Z,99174.73
2022-09-30T13:48:07.418Z,99170.79
2022-09-30T13:49:09.721Z,99174.38
2022-09-30T13:50:13.848Z,99174.64
2022-09-30T13:51:16.182Z,99175.39
2022-09-30T13:52:18.665Z,99173.20
2022-09-30T13:53:21.144Z,99174.42
2022-09-30T13:54:23.654Z,99173.14
2022-09-30T13:55:26.129Z,99167.73
2022-09-30T13:56:28.745Z,99167.29
2022-09-30T13:57:31.065Z,99172.25
2022-09-30T13:58:33.537Z,99162.70
2022-09-30T13:59:36.058Z,99163.33
2022-09-30T14:00:38.558Z,99172.81
2022-09-30T14:01:41.055Z,99168.07
2022-09-30T14:02:43.555Z,99167.91
2022-09-30T14:03:46.131Z,99167.80
2022-09-30T14:04:48.510Z,99167.20
2022-09-30T14:05:50.936Z,99166.38
2022-09-30T14:06:53.420Z,99166.50
2022-09-30T14:07:55.963Z,99164.93
2022-09-30T14:08:58.470Z,99165.63
2022-09-30T14:10:03.401Z,99159.09
2022-09-30T14:11:03.502Z,99161.89
2022-09-30T14:12:06.018Z,99161.08
2022-09-30T14:13:11.072Z,99165.00
2022-09-30T14:14:14.359Z,99166.91
2022-09-30T14:15:18.509Z,99166.84
2022-09-30T14:16:21.909Z,99168.13
2022-09-30T14:17:24.236Z,99169.63
2022-09-30T14:18:26.705Z,99172.02
2022-09-30T14:19:30.861Z,99169.98
2022-09-30T14:20:34.743Z,99171.20
2022-09-30T14:21:37.128Z,99169.56
2022-09-30T14:22:39.594Z,99168.60
2022-09-30T14:23:43.619Z,99164.88
2022-09-30T14:24:47.579Z,99166.77
2022-09-30T14:25:49.878Z,99173.58
2022-09-30T14:26:52.343Z,99171.93
2022-09-30T14:27:54.792Z,99175.66
2022-09-30T14:28:57.250Z,99170.28
2022-09-30T14:30:01.339Z,99171.77
2022-09-30T14:31:03.747Z,99173.47
2022-09-30T14:32:06.220Z,99166.88
2022-09-30T14:33:09.607Z,99167.61
2022-09-30T14:34:12.047Z,99169.84
2022-09-30T14:35:16.129Z,99165.44
2022-09-30T14:36:18.447Z,99165.13
2022-09-30T14:37:22.526Z,99162.70
2022-09-30T14:38:26.489Z,99156.17
2022-09-30T14:39:28.841Z,99156.19
2022-09-30T14:40:32.974Z,99157.63
2022-09-30T14:41:35.393Z,99152.86
2022-09-30T14:42:37.892Z,99152.86
2022-09-30T14:43:42.816Z,99151.25
2022-09-30T14:44:42.856Z,99149.84
2022-09-30T14:45:45.387Z,99149.64
2022-09-30T14:46:47.868Z,99151.25
2022-09-30T14:47:50.335Z,99141.03
2022-09-30T14:48:54.442Z,99146.58
2022-09-30T14:49:56.799Z,99144.59
2022-09-30T14:50:59.292Z,99152.33
2022-09-30T14:52:01.723Z,99149.25
2022-09-30T14:53:04.219Z,99148.93
2022-09-30T14:54:08.283Z,99148.88
2022-09-30T14:55:16.324Z,99145.09
2022-09-30T14:56:18.509Z,99141.63
2022-09-30T14:57:22.529Z,99141.89
2022-09-30T14:58:24.896Z,99143.48
2022-09-30T14:59:27.391Z,99143.97
2022-09-30T15:00:29.920Z,99149.45
2022-09-30T15:01:32.531Z,99144.25
2022-09-30T15:02:34.945Z,99148.23
2022-09-30T15:03:37.452Z,99140.20
2022-09-30T15:04:39.974Z,99140.07
2022-09-30T15:05:44.070Z,99140.59
2022-09-30T15:06:46.511Z,99136.66
2022-09-30T15:07:48.956Z,99135.97
2022-09-30T15:08:53.093Z,99137.34
2022-09-30T15:09:55.458Z,99140.67
2022-09-30T15:11:03.554Z,99135.84
2022-09-30T15:12:07.296Z,99139.09
2022-09-30T15:13:11.237Z,99140.17
2022-09-30T15:14:15.160Z,99134.84
2022-09-30T15:15:17.530Z,99139.36
2022-09-30T15:16:20.082Z,99134.92
2022-09-30T15:17:24.023Z,99136.76
2022-09-30T15:18:26.408Z,99137.52
2022-09-30T15:19:28.915Z,99129.99
2022-09-30T15:20:31.382Z,99129.34
2022-09-30T15:21:33.821Z,99121.53
2022-09-30T15:22:36.319Z,99122.91
2022-09-30T15:23:38.781Z,99125.81
2022-09-30T15:24:42.933Z,99130.77
2022-09-30T15:25:46.862Z,99125.64
2022-09-30T15:26:49.216Z,99123.61
2022-09-30T15:27:53.300Z,99126.02
2022-09-30T15:28:55.660Z,99129.63
2022-09-30T15:30:01.998Z,99135.11
2022-09-30T15:31:04.303Z,99128.75
2022-09-30T15:32:08.335Z,99130.54
2022-09-30T15:33:10.729Z,99131.55
2022-09-30T15:34:13.442Z,99133.58
2022-09-30T15:35:15.941Z,99131.36
2022-09-30T15:36:18.471Z,99133.86
2022-09-30T15:37:20.964Z,99137.25
2022-09-30T15:38:23.450Z,99135.13
2022-09-30T15:39:27.535Z,99136.05
2022-09-30T15:40:29.942Z,99134.44
2022-09-30T15:41:32.480Z,99133.43
2022-09-30T15:42:34.912Z,99136.09
2022-09-30T15:43:37.397Z,99128.81
2022-09-30T15:44:41.515Z,99126.31
2022-09-30T15:45:45.598Z,99128.26
2022-09-30T15:46:49.520Z,99131.34
2022-09-30T15:47:51.873Z,99127.97
2022-09-30T15:48:54.267Z,99128.76
2022-09-30T15:49:56.806Z,99126.95
2022-09-30T15:50:59.240Z,99127.38
2022-09-30T15:52:01.787Z,99128.03
2022-09-30T15:53:04.231Z,99128.98
2022-09-30T15:54:06.660Z,99123.80
2022-09-30T15:55:10.711Z,99125.63
2022-09-30T15:56:14.712Z,99122.73
2022-09-30T15:57:17.024Z,99126.94
2022-09-30T15:58:21.104Z,99122.07
2022-09-30T15:59:23.518Z,99120.48
2022-09-30T16:00:25.992Z,99122.83
2022-09-30T16:01:28.567Z,99119.23
2022-09-30T16:02:31.070Z,99120.41
2022-09-30T16:03:35.153Z,99121.06
2022-09-30T16:04:39.055Z,99119.98
2022-09-30T16:05:42.991Z,99118.15
2022-09-30T16:06:46.949Z,99124.05
2022-09-30T16:07:49.282Z,99125.85
2022-09-30T16:08:51.767Z,99127.63
2022-09-30T16:09:54.203Z,99125.63
2022-09-30T16:10:56.680Z,99131.17
2022-09-30T16:11:59.122Z,99128.09
2022-09-30T16:13:01.594Z,99133.98
2022-09-30T16:14:04.061Z,99131.92
2022-09-30T16:15:06.494Z,99131.73
2022-09-30T16:16:09.001Z,99131.44
2022-09-30T16:17:11.366Z,99130.00
2022-09-30T16:18:15.410Z,99128.67
2022-09-30T16:19:17.848Z,99130.58
2022-09-30T16:20:20.312Z,99135.02
2022-09-30T16:21:22.730Z,99133.95
2022-09-30T16:22:26.767Z,99134.57
2022-09-30T16:23:29.142Z,99132.59
2022-09-30T16:24:31.593Z,99136.80
2022-09-30T16:25:34.014Z,99136.78
2022-09-30T16:26:38.093Z,99137.28
2022-09-30T16:27:40.476Z,99134.17
2022-09-30T16:28:42.929Z,99137.80
2022-09-30T16:29:45.360Z,99132.80
2022-09-30T16:30:47.989Z,99135.96
2022-09-30T16:31:52.067Z,99141.02
2022-09-30T16:32:54.352Z,99137.13
2022-09-30T16:33:58.861Z,99142.74
2022-09-30T16:35:01.240Z,99142.05
2022-09-30T16:36:03.669Z,99142.66
2022-09-30T16:37:07.171Z,99140.16
2022-09-30T16:38:09.556Z,99139.95
2022-09-30T16:39:11.969Z,99142.38
2022-09-30T16:40:14.572Z,99145.08
2022-09-30T16:41:17.283Z,99141.56
2022-09-30T16:42:22.331Z,99143.55
2022-09-30T16:43:24.647Z,99146.02
2022-09-30T16:44:27.078Z,99144.57
2022-09-30T16:45:29.651Z,99142.84
2022-09-30T16:46:32.254Z,99147.24
2022-09-30T16:47:34.483Z,99147.09
2022-09-30T16:57:06.174Z,99146.52
2022-09-30T16:58:11.357Z,99148.89
2022-09-30T16:59:13.704Z,99150.58
2022-09-30T17:08:47.397Z,99150.05
2022-09-30T17:09:49.792Z,99154.67
2022-09-30T17:19:23.671Z,99157.58
2022-09-30T17:28:57.626Z,99153.97
2022-09-30T17:29:59.410Z,99153.84
2022-09-30T17:39:30.693Z,99165.37
2022-09-30T17:49:04.500Z,99186.76
2022-09-30T17:58:38.398Z,99194.59
2022-09-30T18:08:12.570Z,99198.34
2022-09-30T18:17:46.615Z,99203.35
2022-09-30T18:18:49.090Z,99207.50
2022-09-30T18:28:22.608Z,99196.36
2022-09-30T18:37:56.743Z,99189.48
2022-09-30T18:47:30.703Z,99178.95
2022-09-30T18:57:04.713Z,99196.89
2022-09-30T19:06:38.937Z,99197.91
2022-09-30T19:16:13.300Z,99204.98
2022-09-30T19:25:47.077Z,99194.45
2022-09-30T19:35:24.337Z,99209.66
2022-09-30T19:44:54.420Z,99227.97
2022-09-30T19:54:38.146Z,99218.30
2022-09-30T20:04:01.813Z,99235.20
2022-09-30T20:13:37.040Z,99230.02
2022-09-30T20:23:09.052Z,99218.06
2022-09-30T20:32:43.570Z,99211.31
2022-09-30T20:42:23.024Z,99224.20
2022-09-30T20:51:52.123Z,99232.00
2022-09-30T21:01:25.980Z,99248.32
2022-09-30T21:02:28.742Z,99248.86
2022-09-30T21:12:01.276Z,99241.94
2022-09-30T21:21:35.783Z,99232.10
2022-09-30T21:22:37.722Z,99224.07
2022-09-30T21:32:10.828Z,99208.18
2022-09-30T21:33:13.200Z,99206.21
2022-09-30T21:42:46.387Z,99198.24
2022-09-30T21:52:20.435Z,99191.52
2022-09-30T22:01:54.551Z,99193.92
2022-09-30T22:11:27.556Z,99176.72
2022-09-30T22:21:02.348Z,99172.72
2022-09-30T22:30:39.044Z,99183.64
2022-09-30T22:40:11.258Z,99183.61
2022-09-30T22:49:45.421Z,99174.69
2022-09-30T22:59:19.365Z,99179.23
2022-09-30T23:08:53.347Z,99174.56
2022-09-30T23:18:27.243Z,99177.88
2022-09-30T23:28:03.296Z,99169.13
2022-09-30T23:37:36.946Z,99161.16
2022-09-30T23:47:09.222Z,99151.47
2022-09-30T23:56:45.013Z,99142.55
